createdAt,value
2022-09-01T00:00:15.486Z,31.19
2022-09-01T00:03:24.367Z,31.82
2022-09-01T00:06:31.434Z,32.05
2022-09-01T00:09:35.045Z,32.72
2022-09-01T00:12:38.718Z,32.19
2022-09-01T00:15:41.926Z,31.89
2022-09-01T00:18:47.464Z,32.98
2022-09-01T00:21:50.681Z,33.31
2022-09-01T00:24:53.729Z,33.32
2022-09-01T00:28:00.875Z,33.35
2022-09-01T00:31:06.913Z,33.17
2022-09-01T00:34:10.521Z,32.69
2022-09-01T00:37:13.924Z,31.77
2022-09-01T00:40:18.593Z,29.61
2022-09-01T00:43:23.874Z,27.68
2022-09-01T00:46:33.045Z,26.07
2022-09-01T00:49:42.943Z,24.81
2022-09-01T00:52:53.733Z,23.53
2022-09-01T00:55:57.191Z,22.64
2022-09-01T00:59:01.779Z,22.34
2022-09-01T01:02:04.848Z,22.00
2022-09-01T01:05:08.992Z,21.70
2022-09-01T01:08:20.472Z,21.49
2022-09-01T01:11:24.187Z,21.25
2022-09-01T01:14:30.198Z,21.14
2022-09-01T01:17:33.914Z,20.93
2022-09-01T01:20:55.428Z,20.80
2022-09-01T01:24:23.672Z,20.79
2022-09-01T01:27:39.929Z,20.74
2022-09-01T01:30:52.960Z,20.66
2022-09-01T01:33:57.797Z,20.56
2022-09-01T01:37:02.294Z,20.53
2022-09-01T01:40:05.311Z,20.70
2022-09-01T01:43:09.624Z,20.49
2022-09-01T01:46:14.999Z,20.45
2022-09-01T01:49:22.404Z,20.43
2022-09-01T01:52:26.167Z,20.44
2022-09-01T01:55:31.703Z,20.47
2022-09-01T01:58:36.701Z,20.47
2022-09-01T02:01:49.861Z,20.53
2022-09-01T02:04:54.099Z,20.60
2022-09-01T02:08:08.251Z,20.70
2022-09-01T02:11:13.829Z,20.73
2022-09-01T02:14:21.055Z,20.79
2022-09-01T02:17:25.823Z,20.88
2022-09-01T02:20:30.339Z,20.96
2022-09-01T02:23:33.799Z,21.10
2022-09-01T02:26:46.425Z,21.26
2022-09-01T02:29:55.209Z,21.37
2022-09-01T02:32:59.304Z,21.39
2022-09-01T02:36:06.207Z,21.40
2022-09-01T02:39:09.237Z,21.41
2022-09-01T02:42:16.423Z,21.52
2022-09-01T02:45:20.558Z,21.68
2022-09-01T02:48:38.430Z,21.94
2022-09-01T02:51:43.618Z,22.13
2022-09-01T02:54:47.687Z,22.16
2022-09-01T02:57:57.779Z,21.96
2022-09-01T03:01:01.148Z,21.69
2022-09-01T03:04:09.654Z,21.53
2022-09-01T03:07:14.419Z,21.62
2022-09-01T03:10:19.261Z,21.86
2022-09-01T03:13:28.003Z,22.04
2022-09-01T03:16:31.441Z,22.22
2022-09-01T03:19:40.728Z,22.33
2022-09-01T03:22:44.990Z,22.49
2022-09-01T03:25:48.843Z,22.61
2022-09-01T03:28:53.374Z,22.77
2022-09-01T03:31:56.385Z,23.00
2022-09-01T03:35:00.866Z,23.01
2022-09-01T03:38:04.891Z,23.06
2022-09-01T03:41:07.991Z,23.11
2022-09-01T03:44:14.440Z,23.17
2022-09-01T03:47:17.617Z,23.24
2022-09-01T03:50:24.547Z,23.30
2022-09-01T03:53:28.000Z,23.37
2022-09-01T03:56:34.538Z,23.50
2022-09-01T03:59:43.946Z,23.62
2022-09-01T04:02:52.323Z,23.80
2022-09-01T04:06:03.498Z,23.92
2022-09-01T04:09:08.332Z,23.77
2022-09-01T04:12:16.385Z,23.59
2022-09-01T04:15:23.734Z,23.50
2022-09-01T04:18:27.387Z,23.66
2022-09-01T04:21:32.642Z,23.87
2022-09-01T04:24:36.051Z,23.95
2022-09-01T04:27:40.933Z,23.98
2022-09-01T04:30:45.235Z,24.07
2022-09-01T04:33:53.530Z,24.12
2022-09-01T04:36:58.616Z,24.15
2022-09-01T04:40:01.725Z,24.21
2022-09-01T04:43:07.685Z,24.26
2022-09-01T04:46:13.303Z,24.43
2022-09-01T04:49:22.730Z,24.40
2022-09-01T04:52:29.030Z,24.35
2022-09-01T04:55:34.008Z,24.33
2022-09-01T04:58:37.609Z,24.37
2022-09-01T05:01:45.669Z,24.43
2022-09-01T05:04:50.566Z,24.51
2022-09-01T05:07:55.169Z,24.60
2022-09-01T05:10:59.333Z,24.68
2022-09-01T05:14:23.044Z,24.77
2022-09-01T05:17:29.815Z,24.85
2022-09-01T05:20:33.233Z,24.83
2022-09-01T05:23:37.139Z,24.83
2022-09-01T05:26:41.465Z,25.03
2022-09-01T05:29:46.424Z,24.96
2022-09-01T05:32:49.782Z,24.90
2022-09-01T05:36:02.639Z,24.91
2022-09-01T05:39:07.990Z,24.86
2022-09-01T05:42:12.175Z,24.83
2022-09-01T05:45:16.012Z,24.85
2022-09-01T05:48:22.229Z,24.82
2022-09-01T05:51:46.280Z,24.82
2022-09-01T05:54:53.899Z,24.86
2022-09-01T05:57:57.458Z,24.99
2022-09-01T06:01:01.365Z,25.07
2022-09-01T06:04:07.095Z,25.15
2022-09-01T06:07:16.274Z,25.06
2022-09-01T06:10:24.246Z,25.08
2022-09-01T06:13:28.162Z,25.06
2022-09-01T06:16:33.705Z,24.85
2022-09-01T06:19:37.492Z,24.66
2022-09-01T06:22:41.623Z,24.73
2022-09-01T06:25:47.501Z,24.66
2022-09-01T06:28:55.418Z,24.50
2022-09-01T06:32:00.495Z,24.31
2022-09-01T06:35:05.274Z,24.20
2022-09-01T06:38:11.059Z,24.36
2022-09-01T06:41:21.204Z,24.44
2022-09-01T06:44:24.300Z,24.54
2022-09-01T06:47:36.042Z,24.64
2022-09-01T06:54:06.225Z,25.06
2022-09-01T07:00:42.545Z,25.34
2022-09-01T07:03:51.727Z,25.46
2022-09-01T07:18:21.967Z,25.70
2022-09-01T07:22:06.687Z,25.86
2022-09-01T07:25:11.581Z,25.75
2022-09-01T07:28:37.020Z,25.64
2022-09-01T07:31:52.030Z,25.66
2022-09-01T07:35:11.882Z,25.69
2022-09-01T07:45:47.162Z,25.88
2022-09-01T07:49:29.518Z,25.85
2022-09-01T07:52:22.667Z,25.85
2022-09-01T07:55:32.614Z,25.81
2022-09-01T07:58:39.020Z,25.79
2022-09-01T08:01:43.719Z,25.75
2022-09-01T08:04:47.046Z,25.73
2022-09-01T08:07:52.216Z,25.73
2022-09-01T08:11:05.305Z,25.66
2022-09-01T08:14:10.798Z,25.58
2022-09-01T08:17:18.218Z,25.41
2022-09-01T08:20:45.922Z,25.32
2022-09-01T08:24:00.773Z,25.15
2022-09-01T08:27:05.173Z,24.98
2022-09-01T08:30:11.655Z,24.99
2022-09-01T08:33:15.975Z,24.89
2022-09-01T08:36:24.073Z,24.80
2022-09-01T08:39:29.006Z,24.85
2022-09-01T08:42:33.002Z,24.87
2022-09-01T08:46:01.778Z,25.03
2022-09-01T08:49:31.358Z,25.07
2022-09-01T08:52:48.313Z,25.23
2022-09-01T08:55:57.691Z,25.30
2022-09-01T08:59:02.901Z,25.38
2022-09-01T09:03:12.032Z,25.56
2022-09-01T09:06:22.557Z,25.51
2022-09-01T09:09:39.589Z,25.44
2022-09-01T09:12:49.632Z,25.25
2022-09-01T09:16:08.357Z,25.16
2022-09-01T09:19:23.042Z,24.93
2022-09-01T09:22:26.055Z,24.68
2022-09-01T09:25:31.613Z,24.46
2022-09-01T09:28:35.655Z,24.31
2022-09-01T09:31:45.931Z,24.22
2022-09-01T09:34:49.707Z,24.12
2022-09-01T09:37:53.520Z,24.13
2022-09-01T09:41:17.159Z,24.16
2022-09-01T09:44:31.434Z,24.17
2022-09-01T09:47:43.755Z,24.25
2022-09-01T09:50:47.437Z,24.36
2022-09-01T09:53:51.581Z,24.45
2022-09-01T09:57:09.820Z,24.52
2022-09-01T10:00:25.854Z,24.54
2022-09-01T10:03:50.981Z,24.61
2022-09-01T10:06:54.929Z,24.62
2022-09-01T10:10:02.605Z,24.66
2022-09-01T10:13:08.904Z,24.59
2022-09-01T10:16:29.107Z,24.52
2022-09-01T10:19:40.865Z,24.37
2022-09-01T10:22:44.767Z,24.23
2022-09-01T10:25:51.338Z,24.12
2022-09-01T10:29:00.565Z,23.97
2022-09-01T10:32:31.530Z,23.82
2022-09-01T10:35:39.700Z,23.69
2022-09-01T10:38:52.660Z,23.55
2022-09-01T10:42:08.304Z,23.46
2022-09-01T10:45:32.842Z,23.31
2022-09-01T10:48:47.879Z,23.17
2022-09-01T10:51:56.993Z,23.01
2022-09-01T10:55:04.073Z,22.91
2022-09-01T11:01:52.002Z,22.66
2022-09-01T11:04:55.339Z,22.56
2022-09-01T11:08:01.346Z,22.43
2022-09-01T11:11:07.983Z,22.33
2022-09-01T11:14:27.448Z,22.22
2022-09-01T11:17:55.072Z,22.12
2022-09-01T11:21:29.416Z,22.02
2022-09-01T11:24:54.479Z,21.95
2022-09-01T11:28:07.876Z,21.84
2022-09-01T11:31:31.909Z,21.77
2022-09-01T11:34:43.643Z,21.70
2022-09-01T11:37:57.499Z,21.63
2022-09-01T11:41:00.719Z,21.58
2022-09-01T11:44:13.992Z,21.56
2022-09-01T11:47:22.302Z,21.50
2022-09-01T11:50:32.907Z,21.45
2022-09-01T11:53:36.205Z,21.37
2022-09-01T11:56:39.396Z,21.27
2022-09-01T11:59:44.532Z,21.18
2022-09-01T12:02:50.915Z,21.10
2022-09-01T12:06:03.399Z,21.01
2022-09-01T12:09:06.538Z,20.90
2022-09-01T12:12:28.995Z,20.85
2022-09-01T12:15:32.293Z,20.75
2022-09-01T12:18:40.393Z,20.66
2022-09-01T12:21:44.698Z,20.59
2022-09-01T12:24:54.180Z,20.52
2022-09-01T12:27:58.136Z,20.40
2022-09-01T12:31:07.546Z,20.29
2022-09-01T12:34:38.968Z,20.20
2022-09-01T12:37:42.359Z,20.05
2022-09-01T12:40:47.423Z,19.98
2022-09-01T12:43:53.898Z,19.95
2022-09-01T12:47:00.446Z,19.90
2022-09-01T12:50:09.411Z,19.85
2022-09-01T12:53:19.099Z,19.82
2022-09-01T12:56:34.853Z,19.78
2022-09-01T12:59:38.139Z,19.68
2022-09-01T13:02:44.585Z,19.66
2022-09-01T13:05:52.463Z,19.63
2022-09-01T13:08:56.718Z,19.59
2022-09-01T13:12:22.174Z,19.57
2022-09-01T13:15:26.315Z,19.56
2022-09-01T13:18:30.743Z,19.46
2022-09-01T13:21:35.701Z,19.38
2022-09-01T13:24:40.045Z,19.26
2022-09-01T13:27:44.807Z,19.14
2022-09-01T13:34:22.651Z,18.80
2022-09-01T13:37:27.380Z,18.63
2022-09-01T13:40:32.196Z,18.45
2022-09-01T13:43:36.224Z,18.25
2022-09-01T13:50:09.207Z,17.92
2022-09-01T13:53:17.951Z,17.77
2022-09-01T13:56:21.170Z,17.75
2022-09-01T13:59:25.240Z,17.61
2022-09-01T14:02:30.406Z,17.49
2022-09-01T14:05:37.097Z,17.45
2022-09-01T14:08:40.773Z,17.43
2022-09-01T14:11:44.079Z,17.43
2022-09-01T14:18:10.165Z,17.48
2022-09-01T14:21:15.955Z,17.52
2022-09-01T14:24:20.570Z,17.45
2022-09-01T14:27:23.900Z,17.40
2022-09-01T14:30:31.429Z,17.35
2022-09-01T14:33:34.982Z,17.28
2022-09-01T14:36:39.131Z,17.23
2022-09-01T14:39:42.547Z,17.18
2022-09-01T14:42:52.235Z,17.10
2022-09-01T14:46:10.860Z,17.05
2022-09-01T14:49:20.205Z,17.01
2022-09-01T14:52:25.305Z,16.96
2022-09-01T14:55:30.639Z,16.91
2022-09-01T14:58:33.822Z,16.80
2022-09-01T15:01:37.231Z,16.77
2022-09-01T15:04:40.323Z,16.72
2022-09-01T15:07:44.296Z,16.72
2022-09-01T15:10:47.390Z,16.72
2022-09-01T15:13:53.756Z,16.76
2022-09-01T15:16:56.780Z,16.86
2022-09-01T15:20:20.903Z,16.94
2022-09-01T15:23:27.182Z,17.06
2022-09-01T15:26:30.349Z,17.09
2022-09-01T15:37:03.582Z,17.11
2022-09-01T15:40:08.821Z,17.22
2022-09-01T15:43:12.290Z,17.22
2022-09-01T15:46:15.882Z,17.23
2022-09-01T15:49:19.260Z,17.22
2022-09-01T15:52:22.658Z,17.19
2022-09-01T15:55:29.066Z,17.19
2022-09-01T15:58:44.552Z,17.14
2022-09-01T16:01:54.857Z,17.14
2022-09-01T16:04:58.324Z,17.11
2022-09-01T16:08:02.819Z,17.08
2022-09-01T16:11:10.518Z,17.03
2022-09-01T16:14:14.736Z,16.97
2022-09-01T16:17:31.035Z,17.00
2022-09-01T16:20:39.264Z,17.00
2022-09-01T16:23:52.532Z,16.89
2022-09-01T16:26:57.826Z,16.80
2022-09-01T16:30:15.081Z,16.70
2022-09-01T16:33:20.873Z,16.59
2022-09-01T16:36:51.464Z,16.51
2022-09-01T16:40:15.400Z,16.43
2022-09-01T16:43:51.857Z,16.33
2022-09-01T16:47:11.374Z,16.29
2022-09-01T16:50:36.035Z,16.30
2022-09-01T16:54:05.978Z,16.32
2022-09-01T16:57:24.179Z,16.36
2022-09-01T17:00:39.502Z,16.38
2022-09-01T17:03:57.191Z,16.41
2022-09-01T17:07:29.539Z,16.44
2022-09-01T17:10:59.511Z,16.43
2022-09-01T17:14:04.217Z,16.42
2022-09-01T17:17:15.169Z,16.42
2022-09-01T17:20:18.846Z,16.40
2022-09-01T17:23:29.130Z,16.39
2022-09-01T17:26:32.877Z,16.38
2022-09-01T17:29:52.413Z,16.39
2022-09-01T17:33:17.680Z,16.36
2022-09-01T17:36:50.961Z,16.33
2022-09-01T17:40:14.118Z,16.31
2022-09-01T17:43:50.560Z,16.27
2022-09-01T17:47:13.177Z,16.25
2022-09-01T17:50:56.889Z,16.26
2022-09-01T17:54:38.718Z,16.26
2022-09-01T17:57:53.420Z,16.25
2022-09-01T18:01:02.595Z,16.25
2022-09-01T18:04:12.080Z,16.25
2022-09-01T18:07:46.553Z,16.29
2022-09-01T18:10:52.513Z,16.28
2022-09-01T18:14:08.059Z,16.28
2022-09-01T18:17:32.261Z,16.27
2022-09-01T18:20:43.499Z,16.25
2022-09-01T18:23:48.544Z,16.23
2022-09-01T18:26:52.291Z,16.21
2022-09-01T18:29:55.304Z,16.21
2022-09-01T18:33:14.732Z,16.24
2022-09-01T18:36:20.423Z,16.25
2022-09-01T18:39:37.542Z,16.27
2022-09-01T18:42:49.453Z,16.30
2022-09-01T18:46:07.891Z,16.28
2022-09-01T18:49:28.801Z,16.24
2022-09-01T18:53:09.025Z,16.20
2022-09-01T18:56:38.214Z,16.17
2022-09-01T18:59:53.509Z,16.14
2022-09-01T19:03:18.980Z,16.22
2022-09-01T19:06:33.130Z,16.32
2022-09-01T19:10:13.515Z,16.38
2022-09-01T19:13:46.330Z,16.43
2022-09-01T19:17:26.100Z,16.45
2022-09-01T19:20:39.752Z,16.40
2022-09-01T19:23:53.405Z,16.33
2022-09-01T19:27:04.721Z,16.34
2022-09-01T19:30:08.395Z,16.30
2022-09-01T19:33:15.181Z,16.28
2022-09-01T19:36:38.087Z,16.24
2022-09-01T19:39:45.211Z,16.21
2022-09-01T19:42:59.781Z,16.20
2022-09-01T19:46:24.333Z,16.20
2022-09-01T19:49:37.948Z,16.19
2022-09-01T19:52:53.832Z,16.20
2022-09-01T19:56:17.375Z,16.18
2022-09-01T19:59:46.623Z,16.16
2022-09-01T20:03:03.101Z,16.10
2022-09-01T20:06:25.446Z,16.05
2022-09-01T20:09:44.020Z,16.01
2022-09-01T20:13:28.289Z,16.01
2022-09-01T20:16:40.745Z,15.99
2022-09-01T20:20:17.163Z,16.01
2022-09-01T20:23:28.793Z,16.00
2022-09-01T20:26:40.293Z,15.99
2022-09-01T20:30:01.362Z,16.01
2022-09-01T20:33:29.325Z,16.02
2022-09-01T20:36:39.421Z,15.97
2022-09-01T20:40:07.151Z,15.94
2022-09-01T20:43:23.093Z,15.91
2022-09-01T20:46:27.110Z,15.87
2022-09-01T20:49:30.567Z,15.87
2022-09-01T20:52:45.561Z,15.89
2022-09-01T20:55:57.054Z,15.96
2022-09-01T20:59:01.455Z,15.87
2022-09-01T21:02:09.170Z,15.81
2022-09-01T21:05:41.731Z,15.80
2022-09-01T21:08:57.384Z,15.76
2022-09-01T21:12:08.457Z,15.70
2022-09-01T21:15:49.720Z,15.66
2022-09-01T21:19:10.605Z,15.63
2022-09-01T21:22:19.851Z,15.55
2022-09-01T21:25:25.184Z,15.48
2022-09-01T21:28:29.835Z,15.45
2022-09-01T21:31:32.978Z,15.42
2022-09-01T21:34:35.949Z,15.38
2022-09-01T21:37:39.232Z,15.35
2022-09-01T21:40:42.982Z,15.30
2022-09-01T21:43:47.090Z,15.32
2022-09-01T21:46:50.526Z,15.33
2022-09-01T21:49:53.560Z,15.34
2022-09-01T21:52:56.621Z,15.32
2022-09-01T21:56:00.315Z,15.31
2022-09-01T21:59:03.373Z,15.31
2022-09-01T22:02:07.745Z,15.32
2022-09-01T22:05:12.238Z,15.36
2022-09-01T22:08:17.762Z,15.40
2022-09-01T22:11:22.017Z,15.41
2022-09-01T22:14:26.462Z,15.41
2022-09-01T22:17:29.626Z,15.46
2022-09-01T22:20:32.667Z,15.45
2022-09-01T22:23:36.348Z,15.49
2022-09-01T22:26:39.630Z,15.56
2022-09-01T22:29:43.200Z,15.63
2022-09-01T22:32:46.497Z,15.67
2022-09-01T22:35:52.662Z,15.79
2022-09-01T22:41:58.815Z,15.98
2022-09-01T22:45:02.321Z,16.14
2022-09-01T22:48:05.427Z,16.36
2022-09-01T22:51:10.703Z,16.87
2022-09-01T22:54:13.731Z,17.91
2022-09-01T22:57:17.398Z,19.20
2022-09-01T23:00:20.416Z,20.48
2022-09-01T23:03:24.312Z,21.60
2022-09-01T23:06:30.425Z,22.09
2022-09-01T23:09:33.692Z,22.40
2022-09-01T23:12:36.760Z,23.80
2022-09-01T23:15:39.856Z,25.29
2022-09-01T23:18:45.151Z,25.75
2022-09-01T23:21:48.880Z,25.78
2022-09-01T23:24:51.916Z,26.31
2022-09-01T23:27:55.098Z,27.40
2022-09-01T23:30:58.354Z,28.39
2022-09-01T23:34:01.407Z,28.87
2022-09-01T23:37:04.788Z,29.48
2022-09-01T23:40:09.073Z,30.18
2022-09-01T23:43:12.361Z,30.62
2022-09-01T23:46:27.779Z,31.20
2022-09-01T23:49:30.854Z,30.97
2022-09-01T23:52:34.021Z,31.30
2022-09-01T23:55:46.416Z,31.72
2022-09-01T23:58:49.964Z,31.36
